createdAt,value
2022-12-20T00:02:26.361Z,31.20
2022-12-20T00:05:28.254Z,32.80
2022-12-20T00:08:29.808Z,32.80
2022-12-20T00:11:31.378Z,31.20
2022-12-20T00:14:33.028Z,36.90
2022-12-20T00:17:34.586Z,38.60
2022-12-20T00:20:36.239Z,35.30
2022-12-20T00:23:38.061Z,32.60
2022-12-20T00:26:39.711Z,36.90
2022-12-20T00:29:41.303Z,36.50
2022-12-20T00:32:44.047Z,33.40
2022-12-20T00:35:45.667Z,40.80
2022-12-20T00:38:48.156Z,38.70
2022-12-20T00:41:50.476Z,34.20
2022-12-20T00:44:52.519Z,31.70
2022-12-20T00:47:54.093Z,36.40
2022-12-20T00:51:03.283Z,31.10
2022-12-20T00:54:04.847Z,36.20
2022-12-20T00:57:06.599Z,33.40
2022-12-20T01:00:08.781Z,32.90
2022-12-20T01:03:10.627Z,32.90
2022-12-20T01:06:12.500Z,33.40
2022-12-20T01:09:14.067Z,36.70
2022-12-20T01:12:15.716Z,34.40
2022-12-20T01:15:36.114Z,31.90
2022-12-20T01:18:37.773Z,33.90
2022-12-20T01:21:44.990Z,33.70
2022-12-20T01:24:46.726Z,30.20
2022-12-20T01:27:48.388Z,35.40
2022-12-20T01:30:50.018Z,31.60
2022-12-20T01:33:52.526Z,29.30
2022-12-20T01:36:54.290Z,30.30
2022-12-20T01:39:55.845Z,28.90
2022-12-20T01:42:57.503Z,30.70
2022-12-20T01:45:59.347Z,33.10
2022-12-20T01:49:01.033Z,32.50
2022-12-20T01:52:05.077Z,30.30
2022-12-20T01:55:12.458Z,30.40
2022-12-20T01:58:16.549Z,29.10
2022-12-20T02:01:18.202Z,30.40
2022-12-20T02:04:21.005Z,31.80
2022-12-20T02:07:25.728Z,31.50
2022-12-20T02:10:32.754Z,34.70
2022-12-20T02:13:43.238Z,31.50
2022-12-20T02:16:57.702Z,34.60
2022-12-20T02:20:14.725Z,30.90
2022-12-20T02:23:26.251Z,30.20
2022-12-20T02:26:46.467Z,32.20
2022-12-20T02:29:54.179Z,32.40
2022-12-20T02:32:55.761Z,33.80
2022-12-20T02:35:58.183Z,29.30
2022-12-20T02:39:00.047Z,32.90
2022-12-20T02:42:06.525Z,34.90
2022-12-20T02:45:15.551Z,29.80
2022-12-20T02:48:18.306Z,32.20
2022-12-20T02:51:22.860Z,29.90
2022-12-20T02:54:24.824Z,31.80
2022-12-20T02:57:39.184Z,30.60
2022-12-20T03:00:42.829Z,28.10
2022-12-20T03:03:44.731Z,27.20
2022-12-20T03:06:56.142Z,30.90
2022-12-20T03:09:57.817Z,33.50
2022-12-20T03:12:59.464Z,35.00
2022-12-20T03:16:04.103Z,32.60
2022-12-20T03:19:05.751Z,27.90
2022-12-20T03:22:07.529Z,29.60
2022-12-20T03:25:09.386Z,30.60
2022-12-20T03:28:11.142Z,29.90
2022-12-20T03:31:12.887Z,28.30
2022-12-20T03:34:21.623Z,31.50
2022-12-20T03:37:23.696Z,27.80
2022-12-20T03:40:25.661Z,32.10
2022-12-20T03:43:27.270Z,26.50
2022-12-20T03:46:28.930Z,28.40
2022-12-20T03:49:31.264Z,34.00
2022-12-20T03:52:33.221Z,32.10
2022-12-20T03:55:34.885Z,31.70
2022-12-20T03:58:37.060Z,37.10
2022-12-20T04:01:39.197Z,28.70
2022-12-20T04:04:41.602Z,29.50
2022-12-20T04:07:43.260Z,32.30
2022-12-20T04:11:03.677Z,34.60
2022-12-20T04:14:08.290Z,27.00
2022-12-20T04:17:10.324Z,32.80
2022-12-20T04:20:20.024Z,33.50
2022-12-20T04:23:31.087Z,29.90
2022-12-20T04:26:33.668Z,27.10
2022-12-20T04:29:36.454Z,27.70
2022-12-20T04:32:38.829Z,31.30
2022-12-20T04:35:40.492Z,32.90
2022-12-20T04:38:42.435Z,28.60
2022-12-20T04:41:44.322Z,28.90
2022-12-20T04:44:47.410Z,29.00
2022-12-20T04:47:50.819Z,28.90
2022-12-20T04:50:56.936Z,29.00
2022-12-20T04:53:59.092Z,30.30
2022-12-20T04:57:14.641Z,29.00
2022-12-20T05:00:17.303Z,27.80
2022-12-20T05:03:22.823Z,29.10
2022-12-20T05:06:24.525Z,29.30
2022-12-20T05:09:26.389Z,27.60
2022-12-20T05:12:29.229Z,28.80
2022-12-20T05:15:32.860Z,27.50
2022-12-20T05:18:35.069Z,26.40
2022-12-20T05:22:00.385Z,29.10
2022-12-20T05:25:21.022Z,32.40
2022-12-20T05:28:24.476Z,29.30
2022-12-20T05:31:26.695Z,35.00
2022-12-20T05:34:29.003Z,28.70
2022-12-20T05:37:30.787Z,31.40
2022-12-20T05:40:42.590Z,29.40
2022-12-20T05:43:45.588Z,29.50
2022-12-20T05:46:48.108Z,31.50
2022-12-20T05:49:53.606Z,30.20
2022-12-20T05:52:55.431Z,31.20
2022-12-20T05:55:57.227Z,29.50
2022-12-20T05:59:04.856Z,32.00
2022-12-20T06:02:06.879Z,27.90
2022-12-20T06:05:09.717Z,27.50
2022-12-20T06:08:12.060Z,30.90
2022-12-20T06:11:13.949Z,35.20
2022-12-20T06:14:24.091Z,33.00
2022-12-20T06:17:27.483Z,30.60
2022-12-20T06:20:29.822Z,36.60
2022-12-20T06:23:34.362Z,57.40
2022-12-20T06:26:42.620Z,49.40
2022-12-20T06:29:51.887Z,37.40
2022-12-20T06:32:56.575Z,26.30
2022-12-20T06:35:58.402Z,42.20
2022-12-20T06:39:03.389Z,30.80
2022-12-20T06:42:10.452Z,34.00
2022-12-20T06:45:13.984Z,28.90
2022-12-20T06:48:25.240Z,34.80
2022-12-20T06:51:26.875Z,30.90
2022-12-20T06:54:29.385Z,35.10
2022-12-20T06:57:31.029Z,33.30
2022-12-20T07:00:32.915Z,31.90
2022-12-20T07:03:34.632Z,33.80
2022-12-20T07:06:36.833Z,32.00
2022-12-20T07:09:41.397Z,32.10
2022-12-20T07:12:47.666Z,33.70
2022-12-20T07:15:50.213Z,34.70
2022-12-20T07:18:52.740Z,34.70
2022-12-20T07:21:54.712Z,38.90
2022-12-20T07:24:56.342Z,36.70
2022-12-20T07:27:58.623Z,38.20
2022-12-20T07:31:01.380Z,39.30
2022-12-20T07:34:03.050Z,39.10
2022-12-20T07:37:05.003Z,35.60
2022-12-20T07:40:06.864Z,39.30
2022-12-20T07:43:09.138Z,35.50
2022-12-20T07:46:12.879Z,35.50
2022-12-20T07:49:14.552Z,34.60
2022-12-20T07:52:17.812Z,36.60
2022-12-20T07:55:19.879Z,36.20
2022-12-20T07:58:22.256Z,38.40
2022-12-20T08:01:24.338Z,36.80
2022-12-20T08:04:27.217Z,38.90
2022-12-20T08:07:29.972Z,35.90
2022-12-20T08:10:32.101Z,33.60
2022-12-20T08:13:34.143Z,35.40
2022-12-20T08:16:35.947Z,31.80
2022-12-20T08:19:38.845Z,34.30
2022-12-20T08:22:40.425Z,44.10
2022-12-20T08:25:42.421Z,39.60
2022-12-20T08:28:44.273Z,37.50
2022-12-20T08:31:50.092Z,41.20
2022-12-20T08:34:52.821Z,39.20
2022-12-20T08:37:54.306Z,40.00
2022-12-20T08:40:55.848Z,40.80
2022-12-20T08:43:57.496Z,39.30
2022-12-20T08:46:59.058Z,43.30
2022-12-20T08:50:01.269Z,41.00
2022-12-20T08:53:02.883Z,47.30
2022-12-20T08:56:04.621Z,45.60
2022-12-20T08:59:06.241Z,42.90
2022-12-20T09:02:08.078Z,49.50
2022-12-20T09:05:10.210Z,43.70
2022-12-20T09:11:51.861Z,47.40
2022-12-20T09:14:53.363Z,45.90
2022-12-20T09:17:55.676Z,42.60
2022-12-20T09:21:04.121Z,43.60
2022-12-20T09:24:06.431Z,49.60
2022-12-20T09:27:08.040Z,43.00
2022-12-20T09:30:09.910Z,46.20
2022-12-20T09:33:11.662Z,43.80
2022-12-20T09:36:17.735Z,44.80
2022-12-20T09:39:19.315Z,46.60
2022-12-20T09:42:22.894Z,46.30
2022-12-20T09:45:29.660Z,42.70
2022-12-20T09:48:35.626Z,47.80
2022-12-20T09:51:43.160Z,43.30
2022-12-20T09:54:52.504Z,45.00
2022-12-20T09:57:54.125Z,38.30
2022-12-20T10:00:55.881Z,42.90
2022-12-20T10:03:59.115Z,37.30
2022-12-20T10:07:07.086Z,40.30
2022-12-20T10:10:08.747Z,38.10
2022-12-20T10:13:16.494Z,39.00
2022-12-20T10:16:21.018Z,42.80
2022-12-20T10:22:26.929Z,36.90
2022-12-20T10:25:33.020Z,38.10
2022-12-20T10:28:35.561Z,35.40
2022-12-20T10:31:37.294Z,39.40
2022-12-20T10:34:43.537Z,43.50
2022-12-20T10:38:07.148Z,38.70
2022-12-20T10:41:23.420Z,43.60
2022-12-20T10:44:26.913Z,39.40
2022-12-20T10:47:54.633Z,42.70
2022-12-20T10:50:58.855Z,41.80
2022-12-20T10:54:01.750Z,41.60
2022-12-20T10:57:14.989Z,43.10
2022-12-20T11:00:28.367Z,46.00
2022-12-20T11:03:31.046Z,50.60
2022-12-20T11:06:38.626Z,47.60
2022-12-20T11:09:52.180Z,50.40
2022-12-20T11:12:58.289Z,57.70
2022-12-20T11:16:01.923Z,55.30
2022-12-20T11:19:22.960Z,51.90
2022-12-20T11:22:42.775Z,58.00
2022-12-20T11:25:44.380Z,59.50
2022-12-20T11:29:04.859Z,51.90
2022-12-20T11:32:25.211Z,55.20
2022-12-20T11:35:39.357Z,55.30
2022-12-20T11:38:43.353Z,55.60
2022-12-20T11:45:06.960Z,52.00
2022-12-20T11:48:28.932Z,62.50
2022-12-20T11:51:39.782Z,55.60
2022-12-20T11:58:17.925Z,59.90
2022-12-20T12:01:22.621Z,55.80
2022-12-20T12:04:30.274Z,56.50
2022-12-20T12:07:32.856Z,57.90
2022-12-20T12:10:36.337Z,52.00
2022-12-20T12:13:40.239Z,57.70
2022-12-20T12:16:44.961Z,62.20
2022-12-20T12:19:50.014Z,59.90
2022-12-20T12:22:54.654Z,54.30
2022-12-20T12:25:57.225Z,48.80
2022-12-20T12:29:00.090Z,57.50
2022-12-20T12:32:01.773Z,50.10
2022-12-20T12:35:17.687Z,56.40
2022-12-20T12:38:38.272Z,52.00
2022-12-20T12:41:49.249Z,57.10
2022-12-20T12:44:56.500Z,62.10
2022-12-20T12:48:01.712Z,45.80
2022-12-20T12:51:04.071Z,49.60
2022-12-20T12:54:18.422Z,47.80
2022-12-20T12:57:20.081Z,53.50
2022-12-20T13:00:44.814Z,44.10
2022-12-20T13:04:06.310Z,54.40
2022-12-20T13:07:40.738Z,55.60
2022-12-20T13:10:42.289Z,53.50
2022-12-20T13:13:43.962Z,54.20
2022-12-20T13:17:11.501Z,53.60
2022-12-20T13:20:17.553Z,53.70
2022-12-20T13:23:23.731Z,49.00
2022-12-20T13:26:55.001Z,50.00
2022-12-20T13:30:05.676Z,52.80
2022-12-20T13:36:12.038Z,51.00
2022-12-20T13:39:22.629Z,53.90
2022-12-20T13:42:34.427Z,46.50
2022-12-20T13:45:36.159Z,49.10
2022-12-20T13:48:46.724Z,43.90
2022-12-20T13:51:48.314Z,47.00
2022-12-20T13:54:52.446Z,50.90
2022-12-20T13:57:54.196Z,51.00
2022-12-20T14:01:04.276Z,47.20
2022-12-20T14:04:07.453Z,46.90
2022-12-20T14:07:11.667Z,40.30
2022-12-20T14:10:33.703Z,37.30
2022-12-20T14:13:35.180Z,43.30
2022-12-20T14:16:38.966Z,40.10
2022-12-20T14:19:40.638Z,35.60
2022-12-20T14:22:47.682Z,34.90
2022-12-20T14:25:49.131Z,32.20
2022-12-20T14:28:51.749Z,36.90
2022-12-20T14:31:53.835Z,35.10
2022-12-20T14:34:55.660Z,41.00
2022-12-20T14:37:59.615Z,35.50
2022-12-20T14:41:01.502Z,35.10
2022-12-20T14:44:05.379Z,32.60
2022-12-20T14:47:16.098Z,34.20
2022-12-20T14:50:23.201Z,37.40
2022-12-20T14:53:29.008Z,37.70
2022-12-20T14:56:33.556Z,36.30
2022-12-20T14:59:35.183Z,35.40
2022-12-20T15:02:40.938Z,38.10
2022-12-20T15:05:45.602Z,30.00
2022-12-20T15:08:47.226Z,47.30
2022-12-20T15:11:48.970Z,43.20
2022-12-20T15:14:50.516Z,45.40
2022-12-20T15:17:52.307Z,41.70
2022-12-20T15:21:05.093Z,45.40
2022-12-20T15:24:10.888Z,50.40
2022-12-20T15:27:15.696Z,47.70
2022-12-20T15:30:18.321Z,39.50
2022-12-20T15:33:25.392Z,37.50
2022-12-20T15:36:28.281Z,44.00
2022-12-20T15:39:30.290Z,45.80
2022-12-20T15:42:32.281Z,46.20
2022-12-20T15:45:33.898Z,55.60
2022-12-20T15:48:35.458Z,45.30
2022-12-20T15:51:40.531Z,55.90
2022-12-20T15:54:42.042Z,52.10
2022-12-20T15:57:43.595Z,51.20
2022-12-20T16:00:45.279Z,56.20
2022-12-20T16:03:46.892Z,58.60
2022-12-20T16:06:50.445Z,62.10
2022-12-20T16:09:52.046Z,59.90
2022-12-20T16:12:55.399Z,64.30
2022-12-20T16:15:56.993Z,61.60
2022-12-20T16:18:58.613Z,59.10
2022-12-20T16:22:00.184Z,56.50
2022-12-20T16:25:01.798Z,59.40
2022-12-20T16:28:03.611Z,56.00
2022-12-20T16:31:10.893Z,58.30
2022-12-20T16:34:13.761Z,57.00
2022-12-20T16:37:15.503Z,57.50
2022-12-20T16:40:17.268Z,52.10
2022-12-20T16:43:18.923Z,50.50
2022-12-20T16:46:21.677Z,56.50
2022-12-20T16:49:23.431Z,55.80
2022-12-20T16:52:25.034Z,47.00
2022-12-20T16:55:27.950Z,40.20
2022-12-20T16:58:59.919Z,33.60
2022-12-20T17:01:53.452Z,37.80
2022-12-20T17:04:55.487Z,34.80
2022-12-20T17:07:57.197Z,33.60
2022-12-20T17:10:59.063Z,27.60
2022-12-20T17:14:00.774Z,30.00
2022-12-20T17:17:02.408Z,26.50
2022-12-20T17:20:04.057Z,27.80
2022-12-20T17:23:10.895Z,32.80
2022-12-20T17:26:14.968Z,38.30
2022-12-20T17:29:17.924Z,29.50
2022-12-20T17:32:21.165Z,33.90
2022-12-20T17:35:27.996Z,32.70
2022-12-20T17:38:29.565Z,30.90
2022-12-20T17:41:35.311Z,34.50
2022-12-20T17:44:36.873Z,35.70
2022-12-20T17:47:38.370Z,31.30
2022-12-20T17:50:39.820Z,30.40
2022-12-20T17:53:41.410Z,34.30
2022-12-20T17:56:43.023Z,29.80
2022-12-20T17:59:44.654Z,31.90
2022-12-20T18:02:46.431Z,35.30
2022-12-20T18:05:48.132Z,42.10
2022-12-20T18:08:53.936Z,59.20
2022-12-20T18:11:55.614Z,69.50
2022-12-20T18:14:57.254Z,64.80
2022-12-20T18:17:58.939Z,56.80
2022-12-20T18:21:04.880Z,49.00
2022-12-20T18:24:06.743Z,50.70
2022-12-20T18:27:08.403Z,45.80
2022-12-20T18:30:12.201Z,40.10
2022-12-20T18:33:13.818Z,47.30
2022-12-20T18:36:17.275Z,42.40
2022-12-20T18:39:19.644Z,45.50
2022-12-20T18:42:21.314Z,45.70
2022-12-20T18:45:22.890Z,45.50
2022-12-20T18:48:25.245Z,42.00
2022-12-20T18:51:31.014Z,51.30
2022-12-20T18:54:32.558Z,52.20
2022-12-20T18:57:34.113Z,47.90
2022-12-20T19:00:35.678Z,43.60
2022-12-20T19:03:37.580Z,48.40
2022-12-20T19:06:39.545Z,57.50
2022-12-20T19:09:41.087Z,52.60
2022-12-20T19:12:42.676Z,51.60
2022-12-20T19:15:45.400Z,54.00
2022-12-20T19:18:47.497Z,65.80
2022-12-20T19:21:49.137Z,63.60
2022-12-20T19:24:52.120Z,63.70
2022-12-20T19:27:53.661Z,58.00
2022-12-20T19:30:55.847Z,55.90
2022-12-20T19:34:01.919Z,65.90
2022-12-20T19:37:03.428Z,70.10
2022-12-20T19:40:05.436Z,67.10
2022-12-20T19:43:07.147Z,70.40
2022-12-20T19:46:09.826Z,68.80
2022-12-20T19:49:11.747Z,66.20
2022-12-20T19:52:13.377Z,68.00
2022-12-20T19:55:14.987Z,61.00
2022-12-20T19:58:16.665Z,64.80
2022-12-20T20:01:19.265Z,59.80
2022-12-20T20:04:20.967Z,68.40
2022-12-20T20:07:22.468Z,63.00
2022-12-20T20:10:24.023Z,60.70
2022-12-20T20:13:26.565Z,61.80
2022-12-20T20:16:28.332Z,64.70
2022-12-20T20:19:29.875Z,61.20
2022-12-20T20:22:31.471Z,61.00
2022-12-20T20:25:35.448Z,63.60
2022-12-20T20:28:44.574Z,62.30
2022-12-20T20:31:47.169Z,65.20
2022-12-20T20:34:48.836Z,71.00
2022-12-20T20:37:50.475Z,74.00
2022-12-20T20:40:52.331Z,67.40
2022-12-20T20:43:53.934Z,67.00
2022-12-20T20:46:55.735Z,58.60
2022-12-20T20:49:57.334Z,67.20
2022-12-20T20:52:59.840Z,72.90
2022-12-20T20:56:05.086Z,71.10
2022-12-20T20:59:10.555Z,67.80
2022-12-20T21:02:16.998Z,72.90
2022-12-20T21:08:40.255Z,81.40
2022-12-20T21:11:42.280Z,68.70
2022-12-20T21:15:20.546Z,78.90
2022-12-20T21:18:05.621Z,73.00
2022-12-20T21:21:08.511Z,72.30
2022-12-20T21:24:10.171Z,75.80
2022-12-20T21:27:11.652Z,70.30
2022-12-20T21:30:13.384Z,70.90
2022-12-20T21:33:14.901Z,66.70
2022-12-20T21:36:18.495Z,73.10
2022-12-20T21:39:20.005Z,69.70
2022-12-20T21:42:21.673Z,66.80
2022-12-20T21:45:23.119Z,68.30
2022-12-20T21:48:25.508Z,68.90
2022-12-20T21:51:28.385Z,64.00
2022-12-20T21:54:30.354Z,61.30
2022-12-20T21:57:32.187Z,58.50
2022-12-20T22:00:33.846Z,56.60
2022-12-20T22:03:35.823Z,52.40
2022-12-20T22:06:37.812Z,67.20
2022-12-20T22:09:39.434Z,58.50
2022-12-20T22:12:41.018Z,69.00
2022-12-20T22:15:42.692Z,77.00
2022-12-20T22:18:45.231Z,68.80
2022-12-20T22:21:49.810Z,61.10
2022-12-20T22:24:55.774Z,62.70
2022-12-20T22:27:57.353Z,66.70
2022-12-20T22:30:59.002Z,62.40
2022-12-20T22:34:01.060Z,60.30
2022-12-20T22:37:02.670Z,56.10
2022-12-20T22:40:05.283Z,55.40
2022-12-20T22:43:06.823Z,50.60
2022-12-20T22:46:28.691Z,52.60
2022-12-20T22:49:30.292Z,53.10
2022-12-20T22:52:34.679Z,46.20
2022-12-20T22:55:36.140Z,52.20
2022-12-20T22:58:38.741Z,56.80
2022-12-20T23:01:40.355Z,48.40
2022-12-20T23:04:41.880Z,56.70
2022-12-20T23:07:43.321Z,62.20
2022-12-20T23:11:03.421Z,59.30
2022-12-20T23:14:24.153Z,64.20
2022-12-20T23:17:25.557Z,70.50
2022-12-20T23:20:45.986Z,70.50
2022-12-20T23:23:52.465Z,59.40
2022-12-20T23:26:57.328Z,62.50
2022-12-20T23:29:58.831Z,60.90
2022-12-20T23:33:00.372Z,57.60
2022-12-20T23:36:03.332Z,65.40
2022-12-20T23:39:05.301Z,56.70
2022-12-20T23:42:07.083Z,57.20
2022-12-20T23:45:08.923Z,60.30
2022-12-20T23:48:10.399Z,58.70
2022-12-20T23:51:12.028Z,64.20
2022-12-20T23:54:13.535Z,57.40
2022-12-20T23:57:15.025Z,55.40
